sensor_id;sensor_type;location;lat;lon;timestamp;P1;durP1;ratioP1;P2;durP2;ratioP2
56511;SDS011;42408;53.238;5.686;2023-05-10T00:01:04;3.90;;;2.70;;
56511;SDS011;42408;53.238;5.686;2023-05-10T00:03:30;5.60;;;3.53;;
56511;SDS011;42408;53.238;5.686;2023-05-10T00:05:56;4.90;;;3.40;;
56511;SDS011;42408;53.238;5.686;2023-05-10T00:08:22;6.33;;;4.83;;
56511;SDS011;42408;53.238;5.686;2023-05-10T00:10:47;6.50;;;5.77;;
56511;SDS011;42408;53.238;5.686;2023-05-10T00:13:13;8.03;;;6.30;;
56511;SDS011;42408;53.238;5.686;2023-05-10T00:15:38;7.63;;;6.73;;
56511;SDS011;42408;53.238;5.686;2023-05-10T00:18:04;9.93;;;7.60;;
56511;SDS011;42408;53.238;5.686;2023-05-10T00:20:30;8.10;;;6.73;;
56511;SDS011;42408;53.238;5.686;2023-05-10T00:22:55;9.10;;;8.13;;
56511;SDS011;42408;53.238;5.686;2023-05-10T00:25:21;9.77;;;7.93;;
56511;SDS011;42408;53.238;5.686;2023-05-10T00:27:47;9.40;;;7.83;;
56511;SDS011;42408;53.238;5.686;2023-05-10T00:30:13;9.18;;;8.07;;
56511;SDS011;42408;53.238;5.686;2023-05-10T00:32:39;9.20;;;7.90;;
56511;SDS011;42408;53.238;5.686;2023-05-10T00:35:04;8.63;;;6.77;;
56511;SDS011;42408;53.238;5.686;2023-05-10T00:37:30;9.13;;;7.67;;
56511;SDS011;42408;53.238;5.686;2023-05-10T00:39:56;7.43;;;6.60;;
56511;SDS011;42408;53.238;5.686;2023-05-10T00:42:21;9.17;;;8.07;;
56511;SDS011;42408;53.238;5.686;2023-05-10T00:44:47;10.57;;;8.50;;
56511;SDS011;42408;53.238;5.686;2023-05-10T00:47:13;11.53;;;10.33;;
56511;SDS011;42408;53.238;5.686;2023-05-10T00:49:39;14.33;;;11.67;;
56511;SDS011;42408;53.238;5.686;2023-05-10T00:52:05;21.13;;;13.93;;
56511;SDS011;42408;53.238;5.686;2023-05-10T00:54:31;23.03;;;12.90;;
56511;SDS011;42408;53.238;5.686;2023-05-10T00:56:57;25.70;;;15.23;;
56511;SDS011;42408;53.238;5.686;2023-05-10T00:59:23;25.58;;;15.48;;
56511;SDS011;42408;53.238;5.686;2023-05-10T01:01:50;28.30;;;14.48;;
56511;SDS011;42408;53.238;5.686;2023-05-10T01:04:16;25.42;;;12.68;;
56511;SDS011;42408;53.238;5.686;2023-05-10T01:06:42;29.27;;;14.32;;
56511;SDS011;42408;53.238;5.686;2023-05-10T01:09:08;28.80;;;13.52;;
56511;SDS011;42408;53.238;5.686;2023-05-10T01:11:35;22.10;;;12.70;;
56511;SDS011;42408;53.238;5.686;2023-05-10T01:14:02;20.40;;;12.07;;
56511;SDS011;42408;53.238;5.686;2023-05-10T01:18:58;16.08;;;12.23;;
56511;SDS011;42408;53.238;5.686;2023-05-10T01:21:38;18.80;;;14.47;;
56511;SDS011;42408;53.238;5.686;2023-05-10T01:33:07;14.80;;;11.82;;
56511;SDS011;42408;53.238;5.686;2023-05-10T01:35:45;15.63;;;11.95;;
56511;SDS011;42408;53.238;5.686;2023-05-10T01:44:00;11.50;;;9.63;;
56511;SDS011;42408;53.238;5.686;2023-05-10T01:46:36;9.38;;;8.25;;
56511;SDS011;42408;53.238;5.686;2023-05-10T01:49:03;9.25;;;7.38;;
56511;SDS011;42408;53.238;5.686;2023-05-10T01:51:42;7.10;;;5.60;;
56511;SDS011;42408;53.238;5.686;2023-05-10T01:54:12;7.85;;;5.20;;
56511;SDS011;42408;53.238;5.686;2023-05-10T01:56:39;7.05;;;4.85;;
56511;SDS011;42408;53.238;5.686;2023-05-10T01:59:09;6.63;;;4.63;;
56511;SDS011;42408;53.238;5.686;2023-05-10T02:01:40;6.38;;;5.18;;
56511;SDS011;42408;53.238;5.686;2023-05-10T02:04:07;7.35;;;5.45;;
56511;SDS011;42408;53.238;5.686;2023-05-10T02:06:34;6.32;;;4.10;;
56511;SDS011;42408;53.238;5.686;2023-05-10T02:09:02;5.50;;;3.47;;
56511;SDS011;42408;53.238;5.686;2023-05-10T02:11:29;4.47;;;3.03;;
56511;SDS011;42408;53.238;5.686;2023-05-10T02:13:56;4.38;;;2.75;;
56511;SDS011;42408;53.238;5.686;2023-05-10T02:16:23;3.78;;;2.20;;
56511;SDS011;42408;53.238;5.686;2023-05-10T02:18:51;2.45;;;1.77;;
56511;SDS011;42408;53.238;5.686;2023-05-10T02:21:19;2.83;;;1.70;;
56511;SDS011;42408;53.238;5.686;2023-05-10T02:23:46;2.38;;;1.88;;
56511;SDS011;42408;53.238;5.686;2023-05-10T02:26:13;2.80;;;1.70;;
56511;SDS011;42408;53.238;5.686;2023-05-10T02:28:41;2.35;;;1.50;;
56511;SDS011;42408;53.238;5.686;2023-05-10T02:31:08;1.77;;;1.50;;
56511;SDS011;42408;53.238;5.686;2023-05-10T02:33:36;2.40;;;1.42;;
56511;SDS011;42408;53.238;5.686;2023-05-10T02:36:04;1.77;;;1.55;;
56511;SDS011;42408;53.238;5.686;2023-05-10T02:38:33;1.73;;;1.50;;
56511;SDS011;42408;53.238;5.686;2023-05-10T02:41:01;2.25;;;1.60;;
56511;SDS011;42408;53.238;5.686;2023-05-10T02:43:29;3.20;;;1.80;;
56511;SDS011;42408;53.238;5.686;2023-05-10T02:45:55;2.05;;;1.50;;
56511;SDS011;42408;53.238;5.686;2023-05-10T02:48:22;1.80;;;1.48;;
56511;SDS011;42408;53.238;5.686;2023-05-10T02:50:47;11.03;;;2.30;;
56511;SDS011;42408;53.238;5.686;2023-05-10T02:53:18;1.80;;;1.60;;
56511;SDS011;42408;53.238;5.686;2023-05-10T02:55:49;3.38;;;2.25;;
56511;SDS011;42408;53.238;5.686;2023-05-10T02:58:17;2.65;;;1.83;;
56511;SDS011;42408;53.238;5.686;2023-05-10T03:00:44;2.90;;;2.03;;
56511;SDS011;42408;53.238;5.686;2023-05-10T03:03:11;2.25;;;1.67;;
56511;SDS011;42408;53.238;5.686;2023-05-10T03:05:37;1.90;;;1.67;;
56511;SDS011;42408;53.238;5.686;2023-05-10T03:08:02;1.93;;;1.63;;
56511;SDS011;42408;53.238;5.686;2023-05-10T03:10:29;1.92;;;1.60;;
56511;SDS011;42408;53.238;5.686;2023-05-10T03:13:06;2.40;;;1.77;;
56511;SDS011;42408;53.238;5.686;2023-05-10T03:15:58;2.45;;;1.90;;
56511;SDS011;42408;53.238;5.686;2023-05-10T03:18:42;3.03;;;1.90;;
56511;SDS011;42408;53.238;5.686;2023-05-10T03:21:28;2.70;;;1.80;;
56511;SDS011;42408;53.238;5.686;2023-05-10T03:23:59;3.28;;;1.67;;
56511;SDS011;42408;53.238;5.686;2023-05-10T03:26:32;2.08;;;1.88;;
56511;SDS011;42408;53.238;5.686;2023-05-10T03:28:58;2.20;;;1.73;;
56511;SDS011;42408;53.238;5.686;2023-05-10T03:31:25;2.00;;;1.63;;
56511;SDS011;42408;53.238;5.686;2023-05-10T03:33:51;1.30;;;1.20;;
56511;SDS011;42408;53.238;5.686;2023-05-10T03:38:43;2.83;;;1.35;;
56511;SDS011;42408;53.238;5.686;2023-05-10T03:41:09;3.63;;;1.60;;
56511;SDS011;42408;53.238;5.686;2023-05-10T03:43:35;1.53;;;1.40;;
56511;SDS011;42408;53.238;5.686;2023-05-10T03:46:02;1.90;;;1.70;;
56511;SDS011;42408;53.238;5.686;2023-05-10T03:48:28;2.30;;;1.88;;
56511;SDS011;42408;53.238;5.686;2023-05-10T03:50:54;2.83;;;1.90;;
56511;SDS011;42408;53.238;5.686;2023-05-10T03:53:19;2.50;;;1.90;;
56511;SDS011;42408;53.238;5.686;2023-05-10T03:55:45;2.33;;;1.83;;
56511;SDS011;42408;53.238;5.686;2023-05-10T03:58:11;4.07;;;2.30;;
56511;SDS011;42408;53.238;5.686;2023-05-10T04:00:37;3.10;;;2.40;;
56511;SDS011;42408;53.238;5.686;2023-05-10T04:03:08;3.92;;;2.40;;
56511;SDS011;42408;53.238;5.686;2023-05-10T04:05:34;4.75;;;2.80;;
56511;SDS011;42408;53.238;5.686;2023-05-10T04:08:00;3.40;;;2.70;;
56511;SDS011;42408;53.238;5.686;2023-05-10T04:10:26;4.75;;;2.88;;
56511;SDS011;42408;53.238;5.686;2023-05-10T04:12:52;4.43;;;2.70;;
56511;SDS011;42408;53.238;5.686;2023-05-10T04:15:18;5.67;;;3.30;;
56511;SDS011;42408;53.238;5.686;2023-05-10T04:17:43;6.07;;;3.10;;
56511;SDS011;42408;53.238;5.686;2023-05-10T04:20:09;6.27;;;3.40;;
56511;SDS011;42408;53.238;5.686;2023-05-10T04:22:35;9.13;;;4.20;;
56511;SDS011;42408;53.238;5.686;2023-05-10T04:25:01;5.87;;;4.67;;
56511;SDS011;42408;53.238;5.686;2023-05-10T04:27:27;6.80;;;5.27;;
56511;SDS011;42408;53.238;5.686;2023-05-10T04:29:52;6.77;;;5.13;;
56511;SDS011;42408;53.238;5.686;2023-05-10T04:32:18;8.90;;;5.60;;
56511;SDS011;42408;53.238;5.686;2023-05-10T04:34:45;8.18;;;6.15;;
56511;SDS011;42408;53.238;5.686;2023-05-10T04:37:10;8.27;;;6.23;;
56511;SDS011;42408;53.238;5.686;2023-05-10T04:39:36;8.73;;;7.07;;
56511;SDS011;42408;53.238;5.686;2023-05-10T04:42:05;6.97;;;4.90;;
56511;SDS011;42408;53.238;5.686;2023-05-10T04:44:34;7.60;;;5.32;;
56511;SDS011;42408;53.238;5.686;2023-05-10T04:47:00;7.55;;;5.38;;
56511;SDS011;42408;53.238;5.686;2023-05-10T04:49:27;7.43;;;5.78;;
56511;SDS011;42408;53.238;5.686;2023-05-10T04:51:53;7.25;;;5.10;;
56511;SDS011;42408;53.238;5.686;2023-05-10T04:54:18;9.20;;;5.43;;
56511;SDS011;42408;53.238;5.686;2023-05-10T04:56:44;7.33;;;5.53;;
56511;SDS011;42408;53.238;5.686;2023-05-10T04:59:10;7.27;;;5.00;;
56511;SDS011;42408;53.238;5.686;2023-05-10T05:01:36;8.57;;;4.87;;
56511;SDS011;42408;53.238;5.686;2023-05-10T05:04:01;6.50;;;4.40;;
56511;SDS011;42408;53.238;5.686;2023-05-10T05:06:27;6.13;;;4.20;;
56511;SDS011;42408;53.238;5.686;2023-05-10T05:08:53;6.83;;;4.07;;
56511;SDS011;42408;53.238;5.686;2023-05-10T05:11:18;6.70;;;4.40;;
56511;SDS011;42408;53.238;5.686;2023-05-10T05:13:44;7.60;;;5.27;;
56511;SDS011;42408;53.238;5.686;2023-05-10T05:16:10;7.90;;;5.03;;
56511;SDS011;42408;53.238;5.686;2023-05-10T05:18:36;5.87;;;3.93;;
56511;SDS011;42408;53.238;5.686;2023-05-10T05:21:02;5.07;;;3.00;;
56511;SDS011;42408;53.238;5.686;2023-05-10T05:23:27;5.53;;;2.80;;
56511;SDS011;42408;53.238;5.686;2023-05-10T05:25:53;5.37;;;2.63;;
56511;SDS011;42408;53.238;5.686;2023-05-10T05:28:22;4.53;;;2.70;;
56511;SDS011;42408;53.238;5.686;2023-05-10T05:30:47;5.72;;;3.13;;
56511;SDS011;42408;53.238;5.686;2023-05-10T05:33:13;4.50;;;2.60;;
56511;SDS011;42408;53.238;5.686;2023-05-10T05:35:40;4.47;;;2.63;;
56511;SDS011;42408;53.238;5.686;2023-05-10T05:38:08;4.45;;;2.65;;
56511;SDS011;42408;53.238;5.686;2023-05-10T05:40:33;5.47;;;2.40;;
56511;SDS011;42408;53.238;5.686;2023-05-10T05:42:59;3.90;;;2.00;;
56511;SDS011;42408;53.238;5.686;2023-05-10T05:45:25;4.17;;;2.43;;
56511;SDS011;42408;53.238;5.686;2023-05-10T05:47:50;3.67;;;2.00;;
56511;SDS011;42408;53.238;5.686;2023-05-10T05:50:16;2.73;;;1.80;;
56511;SDS011;42408;53.238;5.686;2023-05-10T05:52:42;3.77;;;2.10;;
56511;SDS011;42408;53.238;5.686;2023-05-10T05:55:08;3.40;;;1.90;;
56511;SDS011;42408;53.238;5.686;2023-05-10T05:57:33;3.67;;;2.10;;
56511;SDS011;42408;53.238;5.686;2023-05-10T05:59:59;4.67;;;2.90;;
56511;SDS011;42408;53.238;5.686;2023-05-10T06:02:25;5.50;;;2.83;;
56511;SDS011;42408;53.238;5.686;2023-05-10T06:04:50;7.60;;;3.43;;
56511;SDS011;42408;53.238;5.686;2023-05-10T06:07:16;5.40;;;3.30;;
56511;SDS011;42408;53.238;5.686;2023-05-10T06:09:41;6.67;;;3.70;;
56511;SDS011;42408;53.238;5.686;2023-05-10T06:12:07;5.73;;;3.37;;
56511;SDS011;42408;53.238;5.686;2023-05-10T06:14:33;5.97;;;3.30;;
56511;SDS011;42408;53.238;5.686;2023-05-10T06:16:58;8.03;;;3.50;;
56511;SDS011;42408;53.238;5.686;2023-05-10T06:19:25;5.70;;;3.55;;
56511;SDS011;42408;53.238;5.686;2023-05-10T06:21:51;6.20;;;3.55;;
56511;SDS011;42408;53.238;5.686;2023-05-10T06:24:17;5.47;;;3.70;;
56511;SDS011;42408;53.238;5.686;2023-05-10T06:26:42;5.40;;;2.93;;
56511;SDS011;42408;53.238;5.686;2023-05-10T06:29:08;5.00;;;2.50;;
56511;SDS011;42408;53.238;5.686;2023-05-10T06:31:34;5.20;;;2.77;;
56511;SDS011;42408;53.238;5.686;2023-05-10T06:33:59;5.93;;;2.93;;
56511;SDS011;42408;53.238;5.686;2023-05-10T06:36:25;5.57;;;2.50;;
56511;SDS011;42408;53.238;5.686;2023-05-10T06:41:17;10.68;;;5.85;;
56511;SDS011;42408;53.238;5.686;2023-05-10T06:43:43;8.27;;;4.63;;
56511;SDS011;42408;53.238;5.686;2023-05-10T06:46:08;8.93;;;6.00;;
56511;SDS011;42408;53.238;5.686;2023-05-10T06:48:34;7.10;;;4.70;;
56511;SDS011;42408;53.238;5.686;2023-05-10T06:51:00;7.43;;;4.70;;
56511;SDS011;42408;53.238;5.686;2023-05-10T06:53:25;8.93;;;4.87;;
56511;SDS011;42408;53.238;5.686;2023-05-10T06:55:51;8.93;;;4.70;;
56511;SDS011;42408;53.238;5.686;2023-05-10T06:58:17;9.90;;;4.93;;
56511;SDS011;42408;53.238;5.686;2023-05-10T07:00:42;7.10;;;4.77;;
56511;SDS011;42408;53.238;5.686;2023-05-10T07:03:10;8.73;;;4.57;;
56511;SDS011;42408;53.238;5.686;2023-05-10T07:05:35;8.47;;;5.03;;
56511;SDS011;42408;53.238;5.686;2023-05-10T07:08:01;7.20;;;4.77;;
56511;SDS011;42408;53.238;5.686;2023-05-10T07:10:27;7.80;;;4.90;;
56511;SDS011;42408;53.238;5.686;2023-05-10T07:12:53;8.07;;;4.97;;
56511;SDS011;42408;53.238;5.686;2023-05-10T07:15:18;8.43;;;5.60;;
56511;SDS011;42408;53.238;5.686;2023-05-10T07:17:44;7.50;;;5.13;;
56511;SDS011;42408;53.238;5.686;2023-05-10T07:20:10;7.87;;;5.00;;
56511;SDS011;42408;53.238;5.686;2023-05-10T07:22:36;7.97;;;4.68;;
56511;SDS011;42408;53.238;5.686;2023-05-10T07:25:02;8.10;;;5.70;;
56511;SDS011;42408;53.238;5.686;2023-05-10T07:27:27;10.43;;;5.57;;
56511;SDS011;42408;53.238;5.686;2023-05-10T07:29:53;8.23;;;5.60;;
56511;SDS011;42408;53.238;5.686;2023-05-10T07:32:19;8.55;;;6.20;;
56511;SDS011;42408;53.238;5.686;2023-05-10T07:34:46;9.73;;;6.30;;
56511;SDS011;42408;53.238;5.686;2023-05-10T07:37:11;10.53;;;6.13;;
56511;SDS011;42408;53.238;5.686;2023-05-10T07:39:37;8.23;;;5.30;;
56511;SDS011;42408;53.238;5.686;2023-05-10T07:42:03;9.07;;;5.73;;
56511;SDS011;42408;53.238;5.686;2023-05-10T07:44:28;9.10;;;5.90;;
56511;SDS011;42408;53.238;5.686;2023-05-10T07:46:54;8.93;;;5.83;;
56511;SDS011;42408;53.238;5.686;2023-05-10T07:49:20;8.27;;;5.13;;
56511;SDS011;42408;53.238;5.686;2023-05-10T07:51:49;8.30;;;5.57;;
56511;SDS011;42408;53.238;5.686;2023-05-10T07:54:15;9.35;;;5.53;;
56511;SDS011;42408;53.238;5.686;2023-05-10T07:56:41;8.57;;;5.63;;
56511;SDS011;42408;53.238;5.686;2023-05-10T07:59:14;9.25;;;4.97;;
56511;SDS011;42408;53.238;5.686;2023-05-10T08:01:41;8.23;;;4.55;;
56511;SDS011;42408;53.238;5.686;2023-05-10T08:04:07;6.57;;;3.95;;
56511;SDS011;42408;53.238;5.686;2023-05-10T08:06:34;9.60;;;4.60;;
56511;SDS011;42408;53.238;5.686;2023-05-10T08:08:59;9.67;;;5.77;;
56511;SDS011;42408;53.238;5.686;2023-05-10T08:11:25;11.20;;;5.77;;
56511;SDS011;42408;53.238;5.686;2023-05-10T08:13:52;9.35;;;6.30;;
56511;SDS011;42408;53.238;5.686;2023-05-10T08:16:18;9.70;;;5.87;;
56511;SDS011;42408;53.238;5.686;2023-05-10T08:18:45;12.18;;;6.28;;
56511;SDS011;42408;53.238;5.686;2023-05-10T08:21:12;9.43;;;6.63;;
56511;SDS011;42408;53.238;5.686;2023-05-10T08:23:38;9.30;;;6.00;;
56511;SDS011;42408;53.238;5.686;2023-05-10T08:26:04;10.73;;;7.20;;
56511;SDS011;42408;53.238;5.686;2023-05-10T08:28:30;11.80;;;7.57;;
56511;SDS011;42408;53.238;5.686;2023-05-10T08:30:56;13.67;;;7.50;;
56511;SDS011;42408;53.238;5.686;2023-05-10T08:33:22;13.67;;;8.10;;
56511;SDS011;42408;53.238;5.686;2023-05-10T08:35:47;13.77;;;9.17;;
56511;SDS011;42408;53.238;5.686;2023-05-10T08:38:13;13.53;;;7.27;;
56511;SDS011;42408;53.238;5.686;2023-05-10T08:40:42;10.73;;;7.07;;
56511;SDS011;42408;53.238;5.686;2023-05-10T08:43:09;11.35;;;6.88;;
56511;SDS011;42408;53.238;5.686;2023-05-10T08:45:38;12.13;;;7.38;;
56511;SDS011;42408;53.238;5.686;2023-05-10T08:48:05;15.15;;;8.45;;
56511;SDS011;42408;53.238;5.686;2023-05-10T08:50:32;10.70;;;7.53;;
56511;SDS011;42408;53.238;5.686;2023-05-10T08:53:04;12.88;;;7.40;;
56511;SDS011;42408;53.238;5.686;2023-05-10T08:55:32;15.55;;;7.72;;
56511;SDS011;42408;53.238;5.686;2023-05-10T09:00:24;11.75;;;6.43;;
56511;SDS011;42408;53.238;5.686;2023-05-10T09:02:51;10.70;;;7.30;;
56511;SDS011;42408;53.238;5.686;2023-05-10T09:05:17;10.02;;;6.60;;
56511;SDS011;42408;53.238;5.686;2023-05-10T09:07:43;11.67;;;7.00;;
56511;SDS011;42408;53.238;5.686;2023-05-10T09:10:09;11.82;;;6.72;;
56511;SDS011;42408;53.238;5.686;2023-05-10T09:12:36;10.18;;;6.00;;
56511;SDS011;42408;53.238;5.686;2023-05-10T09:15:02;13.70;;;6.22;;
56511;SDS011;42408;53.238;5.686;2023-05-10T09:17:30;10.68;;;6.15;;
56511;SDS011;42408;53.238;5.686;2023-05-10T09:19:57;8.65;;;5.60;;
56511;SDS011;42408;53.238;5.686;2023-05-10T09:22:24;11.05;;;6.72;;
56511;SDS011;42408;53.238;5.686;2023-05-10T09:27:32;10.32;;;6.97;;
56511;SDS011;42408;53.238;5.686;2023-05-10T09:29:58;9.57;;;6.32;;
56511;SDS011;42408;53.238;5.686;2023-05-10T09:32:43;11.30;;;6.87;;
56511;SDS011;42408;53.238;5.686;2023-05-10T09:35:10;10.35;;;6.70;;
56511;SDS011;42408;53.238;5.686;2023-05-10T09:37:41;11.65;;;7.50;;
56511;SDS011;42408;53.238;5.686;2023-05-10T09:40:12;11.15;;;6.72;;
56511;SDS011;42408;53.238;5.686;2023-05-10T09:42:43;10.60;;;6.78;;
56511;SDS011;42408;53.238;5.686;2023-05-10T09:45:16;12.30;;;8.07;;
56511;SDS011;42408;53.238;5.686;2023-05-10T09:47:41;11.50;;;7.87;;
56511;SDS011;42408;53.238;5.686;2023-05-10T09:50:07;13.17;;;8.23;;
56511;SDS011;42408;53.238;5.686;2023-05-10T09:52:45;13.55;;;8.63;;
56511;SDS011;42408;53.238;5.686;2023-05-10T09:55:18;11.55;;;7.28;;
56511;SDS011;42408;53.238;5.686;2023-05-10T09:57:46;14.00;;;8.25;;
56511;SDS011;42408;53.238;5.686;2023-05-10T10:02:44;13.18;;;8.40;;
56511;SDS011;42408;53.238;5.686;2023-05-10T10:05:11;13.02;;;7.82;;
56511;SDS011;42408;53.238;5.686;2023-05-10T10:07:36;14.07;;;8.40;;
56511;SDS011;42408;53.238;5.686;2023-05-10T10:10:03;10.95;;;7.50;;
56511;SDS011;42408;53.238;5.686;2023-05-10T10:12:30;10.27;;;7.43;;
56511;SDS011;42408;53.238;5.686;2023-05-10T10:14:56;11.90;;;7.30;;
56511;SDS011;42408;53.238;5.686;2023-05-10T10:17:24;13.57;;;8.43;;
56511;SDS011;42408;53.238;5.686;2023-05-10T10:19:53;11.93;;;8.82;;
56511;SDS011;42408;53.238;5.686;2023-05-10T10:22:20;15.85;;;10.10;;
56511;SDS011;42408;53.238;5.686;2023-05-10T10:24:46;12.40;;;9.43;;
56511;SDS011;42408;53.238;5.686;2023-05-10T10:27:18;11.43;;;7.87;;
56511;SDS011;42408;53.238;5.686;2023-05-10T10:35:38;12.35;;;7.85;;
56511;SDS011;42408;53.238;5.686;2023-05-10T10:38:05;11.57;;;7.60;;
56511;SDS011;42408;53.238;5.686;2023-05-10T10:40:33;10.25;;;7.05;;
56511;SDS011;42408;53.238;5.686;2023-05-10T10:43:21;9.02;;;6.60;;
56511;SDS011;42408;53.238;5.686;2023-05-10T10:48:39;10.73;;;7.15;;
56511;SDS011;42408;53.238;5.686;2023-05-10T10:51:16;10.00;;;6.55;;
56511;SDS011;42408;53.238;5.686;2023-05-10T10:53:42;10.50;;;6.67;;
56511;SDS011;42408;53.238;5.686;2023-05-10T10:56:09;9.52;;;6.50;;
56511;SDS011;42408;53.238;5.686;2023-05-10T10:58:40;10.65;;;7.45;;
56511;SDS011;42408;53.238;5.686;2023-05-10T11:01:13;11.38;;;7.85;;
56511;SDS011;42408;53.238;5.686;2023-05-10T11:03:39;11.07;;;6.80;;
56511;SDS011;42408;53.238;5.686;2023-05-10T11:06:05;9.93;;;6.93;;
56511;SDS011;42408;53.238;5.686;2023-05-10T11:08:31;9.10;;;6.70;;
56511;SDS011;42408;53.238;5.686;2023-05-10T11:13:30;11.50;;;8.27;;
56511;SDS011;42408;53.238;5.686;2023-05-10T11:15:57;9.30;;;7.20;;
56511;SDS011;42408;53.238;5.686;2023-05-10T11:18:27;9.82;;;7.03;;
56511;SDS011;42408;53.238;5.686;2023-05-10T11:20:58;13.05;;;8.07;;
56511;SDS011;42408;53.238;5.686;2023-05-10T11:26:11;11.63;;;8.13;;
56511;SDS011;42408;53.238;5.686;2023-05-10T11:28:44;12.57;;;8.77;;
56511;SDS011;42408;53.238;5.686;2023-05-10T11:31:17;13.00;;;8.98;;
56511;SDS011;42408;53.238;5.686;2023-05-10T11:33:52;11.52;;;8.63;;
56511;SDS011;42408;53.238;5.686;2023-05-10T11:36:40;13.80;;;8.30;;
56511;SDS011;42408;53.238;5.686;2023-05-10T11:39:05;11.73;;;8.02;;
56511;SDS011;42408;53.238;5.686;2023-05-10T11:41:31;12.95;;;8.65;;
56511;SDS011;42408;53.238;5.686;2023-05-10T11:43:57;14.85;;;9.63;;
56511;SDS011;42408;53.238;5.686;2023-05-10T11:46:24;15.77;;;9.65;;
56511;SDS011;42408;53.238;5.686;2023-05-10T11:48:56;15.90;;;10.80;;
56511;SDS011;42408;53.238;5.686;2023-05-10T11:51:25;14.10;;;10.20;;
56511;SDS011;42408;53.238;5.686;2023-05-10T11:53:52;12.83;;;9.60;;
56511;SDS011;42408;53.238;5.686;2023-05-10T11:56:19;10.95;;;8.20;;
56511;SDS011;42408;53.238;5.686;2023-05-10T11:58:52;12.10;;;8.60;;
56511;SDS011;42408;53.238;5.686;2023-05-10T12:01:20;12.20;;;9.65;;
56511;SDS011;42408;53.238;5.686;2023-05-10T12:06:13;12.85;;;7.85;;
56511;SDS011;42408;53.238;5.686;2023-05-10T12:08:43;10.60;;;8.27;;
56511;SDS011;42408;53.238;5.686;2023-05-10T12:11:11;12.02;;;8.00;;
56511;SDS011;42408;53.238;5.686;2023-05-10T12:13:38;11.95;;;8.95;;
56511;SDS011;42408;53.238;5.686;2023-05-10T12:16:14;11.65;;;8.80;;
56511;SDS011;42408;53.238;5.686;2023-05-10T12:18:40;11.20;;;7.82;;
56511;SDS011;42408;53.238;5.686;2023-05-10T12:21:07;14.00;;;9.05;;
56511;SDS011;42408;53.238;5.686;2023-05-10T12:23:35;12.45;;;9.02;;
56511;SDS011;42408;53.238;5.686;2023-05-10T12:26:04;12.13;;;7.97;;
56511;SDS011;42408;53.238;5.686;2023-05-10T12:28:31;11.70;;;7.40;;
56511;SDS011;42408;53.238;5.686;2023-05-10T12:30:57;12.70;;;7.70;;
56511;SDS011;42408;53.238;5.686;2023-05-10T12:33:24;11.75;;;8.07;;
56511;SDS011;42408;53.238;5.686;2023-05-10T12:35:51;12.27;;;8.90;;
56511;SDS011;42408;53.238;5.686;2023-05-10T12:38:28;13.15;;;9.30;;
56511;SDS011;42408;53.238;5.686;2023-05-10T12:40:56;16.90;;;11.57;;
56511;SDS011;42408;53.238;5.686;2023-05-10T12:43:23;15.30;;;10.70;;
56511;SDS011;42408;53.238;5.686;2023-05-10T12:45:48;14.83;;;9.53;;
56511;SDS011;42408;53.238;5.686;2023-05-10T12:48:14;13.10;;;9.00;;
56511;SDS011;42408;53.238;5.686;2023-05-10T12:50:40;14.73;;;9.82;;
56511;SDS011;42408;53.238;5.686;2023-05-10T12:53:06;16.05;;;10.82;;
56511;SDS011;42408;53.238;5.686;2023-05-10T12:55:32;16.63;;;11.17;;
56511;SDS011;42408;53.238;5.686;2023-05-10T12:57:57;14.30;;;9.60;;
56511;SDS011;42408;53.238;5.686;2023-05-10T13:00:23;14.40;;;9.37;;
56511;SDS011;42408;53.238;5.686;2023-05-10T13:02:49;17.13;;;10.43;;
56511;SDS011;42408;53.238;5.686;2023-05-10T13:05:14;14.47;;;10.03;;
56511;SDS011;42408;53.238;5.686;2023-05-10T13:07:40;12.50;;;8.80;;
56511;SDS011;42408;53.238;5.686;2023-05-10T13:10:06;10.77;;;8.27;;
56511;SDS011;42408;53.238;5.686;2023-05-10T13:12:32;12.40;;;8.70;;
56511;SDS011;42408;53.238;5.686;2023-05-10T13:14:58;10.60;;;7.40;;
56511;SDS011;42408;53.238;5.686;2023-05-10T13:17:24;10.00;;;7.40;;
56511;SDS011;42408;53.238;5.686;2023-05-10T13:19:50;14.20;;;7.30;;
56511;SDS011;42408;53.238;5.686;2023-05-10T13:22:16;11.13;;;7.47;;
56511;SDS011;42408;53.238;5.686;2023-05-10T13:24:42;9.85;;;7.20;;
56511;SDS011;42408;53.238;5.686;2023-05-10T13:27:08;8.85;;;6.68;;
56511;SDS011;42408;53.238;5.686;2023-05-10T13:29:34;7.77;;;5.33;;
56511;SDS011;42408;53.238;5.686;2023-05-10T13:31:59;8.00;;;6.25;;
56511;SDS011;42408;53.238;5.686;2023-05-10T13:34:25;6.30;;;4.80;;
56511;SDS011;42408;53.238;5.686;2023-05-10T13:36:51;7.38;;;5.78;;
56511;SDS011;42408;53.238;5.686;2023-05-10T13:39:18;8.23;;;5.60;;
56511;SDS011;42408;53.238;5.686;2023-05-10T13:41:45;7.97;;;5.47;;
56511;SDS011;42408;53.238;5.686;2023-05-10T13:44:14;7.38;;;5.63;;
56511;SDS011;42408;53.238;5.686;2023-05-10T13:46:41;7.60;;;6.00;;
56511;SDS011;42408;53.238;5.686;2023-05-10T13:51:36;7.30;;;5.45;;
56511;SDS011;42408;53.238;5.686;2023-05-10T13:54:02;8.03;;;6.30;;
56511;SDS011;42408;53.238;5.686;2023-05-10T13:56:28;8.93;;;5.97;;
56511;SDS011;42408;53.238;5.686;2023-05-10T13:58:53;7.77;;;6.47;;
56511;SDS011;42408;53.238;5.686;2023-05-10T14:01:21;7.82;;;6.70;;
56511;SDS011;42408;53.238;5.686;2023-05-10T14:03:47;7.87;;;7.07;;
56511;SDS011;42408;53.238;5.686;2023-05-10T14:06:13;7.67;;;6.07;;
56511;SDS011;42408;53.238;5.686;2023-05-10T14:08:38;7.07;;;5.20;;
56511;SDS011;42408;53.238;5.686;2023-05-10T14:11:05;7.57;;;5.32;;
56511;SDS011;42408;53.238;5.686;2023-05-10T14:13:30;6.90;;;5.13;;
56511;SDS011;42408;53.238;5.686;2023-05-10T14:15:56;7.63;;;5.80;;
56511;SDS011;42408;53.238;5.686;2023-05-10T14:18:23;6.03;;;4.70;;
56511;SDS011;42408;53.238;5.686;2023-05-10T14:20:49;6.43;;;4.97;;
56511;SDS011;42408;53.238;5.686;2023-05-10T14:23:15;6.75;;;5.00;;
56511;SDS011;42408;53.238;5.686;2023-05-10T14:25:40;6.40;;;5.07;;
56511;SDS011;42408;53.238;5.686;2023-05-10T14:28:06;6.07;;;4.85;;
56511;SDS011;42408;53.238;5.686;2023-05-10T14:30:32;6.53;;;5.23;;
56511;SDS011;42408;53.238;5.686;2023-05-10T14:32:59;6.80;;;5.20;;
56511;SDS011;42408;53.238;5.686;2023-05-10T14:35:26;7.50;;;5.55;;
56511;SDS011;42408;53.238;5.686;2023-05-10T14:40:18;9.88;;;7.32;;
56511;SDS011;42408;53.238;5.686;2023-05-10T14:42:44;7.37;;;6.13;;
56511;SDS011;42408;53.238;5.686;2023-05-10T14:45:10;7.20;;;5.70;;
56511;SDS011;42408;53.238;5.686;2023-05-10T14:47:36;8.82;;;6.88;;
56511;SDS011;42408;53.238;5.686;2023-05-10T14:50:01;7.93;;;5.93;;
56511;SDS011;42408;53.238;5.686;2023-05-10T14:52:27;8.90;;;6.70;;
56511;SDS011;42408;53.238;5.686;2023-05-10T14:54:53;10.20;;;7.45;;
56511;SDS011;42408;53.238;5.686;2023-05-10T14:57:19;8.93;;;6.70;;
56511;SDS011;42408;53.238;5.686;2023-05-10T14:59:45;11.13;;;7.83;;
56511;SDS011;42408;53.238;5.686;2023-05-10T15:02:10;7.93;;;6.17;;
56511;SDS011;42408;53.238;5.686;2023-05-10T15:04:36;9.63;;;6.33;;
56511;SDS011;42408;53.238;5.686;2023-05-10T15:07:02;8.27;;;6.22;;
56511;SDS011;42408;53.238;5.686;2023-05-10T15:09:28;9.50;;;6.13;;
56511;SDS011;42408;53.238;5.686;2023-05-10T15:11:54;9.80;;;7.07;;
56511;SDS011;42408;53.238;5.686;2023-05-10T15:14:20;10.27;;;7.90;;
56511;SDS011;42408;53.238;5.686;2023-05-10T15:16:46;10.48;;;7.93;;
56511;SDS011;42408;53.238;5.686;2023-05-10T15:19:12;11.50;;;8.30;;
56511;SDS011;42408;53.238;5.686;2023-05-10T15:21:38;11.80;;;8.63;;
56511;SDS011;42408;53.238;5.686;2023-05-10T15:24:04;11.70;;;9.47;;
56511;SDS011;42408;53.238;5.686;2023-05-10T15:28:56;11.02;;;8.27;;
56511;SDS011;42408;53.238;5.686;2023-05-10T15:31:22;10.57;;;8.20;;
56511;SDS011;42408;53.238;5.686;2023-05-10T15:33:47;10.40;;;8.43;;